createdAt,value
2018-11-04T00:00:32.351Z,30.45
2018-11-04T00:03:01.920Z,31.93
2018-11-04T00:05:29.158Z,27.27
2018-11-04T00:07:58.377Z,49.45
2018-11-04T00:10:27.400Z,31.97
2018-11-04T00:12:54.820Z,37.67
2018-11-04T00:15:22.348Z,35.60
2018-11-04T00:17:50.967Z,33.48
2018-11-04T00:20:18.307Z,33.95
2018-11-04T00:22:48.775Z,29.57
2018-11-04T00:25:16.130Z,31.00
2018-11-04T00:27:43.458Z,36.53
2018-11-04T00:30:13.043Z,35.13
2018-11-04T00:32:45.885Z,28.27
2018-11-04T00:35:13.564Z,31.55
2018-11-04T00:37:43.033Z,27.55
2018-11-04T00:40:11.729Z,24.98
2018-11-04T00:42:39.630Z,29.12
2018-11-04T00:45:12.088Z,32.28
2018-11-04T00:47:45.492Z,26.57
2018-11-04T00:50:15.469Z,26.15
2018-11-04T00:52:43.448Z,25.88
2018-11-04T00:55:11.400Z,26.85
2018-11-04T00:57:39.060Z,24.15
2018-11-04T01:00:10.327Z,34.15
2018-11-04T01:02:39.998Z,27.30
2018-11-04T01:05:08.467Z,32.25
2018-11-04T01:07:37.036Z,34.00
2018-11-04T01:10:06.810Z,27.87
2018-11-04T01:12:36.508Z,26.90
2018-11-04T01:15:05.348Z,30.25
2018-11-04T01:17:33.156Z,27.37
2018-11-04T01:20:01.075Z,26.80
2018-11-04T01:22:28.819Z,25.65
2018-11-04T01:24:56.376Z,27.05
2018-11-04T01:27:23.821Z,27.55
2018-11-04T01:29:53.405Z,24.47
2018-11-04T01:32:21.012Z,28.35
2018-11-04T01:34:49.616Z,26.60
2018-11-04T01:37:18.171Z,34.08
2018-11-04T01:39:46.732Z,26.25
2018-11-04T01:42:14.202Z,31.25
2018-11-04T01:44:41.824Z,32.65
2018-11-04T01:47:11.507Z,26.02
2018-11-04T01:49:38.991Z,27.93
2018-11-04T01:52:07.220Z,28.20
2018-11-04T01:54:34.809Z,35.45
2018-11-04T01:57:03.544Z,30.60
2018-11-04T01:59:36.031Z,28.73
2018-11-04T02:02:03.665Z,29.87
2018-11-04T02:04:33.098Z,31.65
2018-11-04T02:07:00.872Z,31.05
2018-11-04T02:09:28.310Z,27.77
2018-11-04T02:11:55.528Z,27.02
2018-11-04T02:14:23.919Z,26.48
2018-11-04T02:16:51.800Z,37.30
2018-11-04T02:19:19.270Z,33.20
2018-11-04T02:21:47.050Z,34.67
2018-11-04T02:24:17.717Z,34.20
2018-11-04T02:26:48.183Z,27.65
2018-11-04T02:29:15.830Z,26.07
2018-11-04T02:31:44.406Z,36.35
2018-11-04T02:34:13.509Z,35.48
2018-11-04T02:36:44.235Z,28.90
2018-11-04T02:39:11.484Z,29.90
2018-11-04T02:41:40.285Z,27.05
2018-11-04T02:44:09.928Z,35.00
2018-11-04T02:46:37.182Z,27.30
2018-11-04T02:49:04.724Z,29.40
2018-11-04T02:51:33.150Z,28.77
2018-11-04T02:54:02.882Z,33.13
2018-11-04T02:56:32.501Z,26.77
2018-11-04T02:59:00.644Z,27.70
2018-11-04T03:01:28.037Z,28.32
2018-11-04T03:03:55.634Z,26.00
2018-11-04T03:06:23.128Z,38.65
2018-11-04T03:08:50.569Z,37.30
2018-11-04T03:11:20.176Z,33.28
2018-11-04T03:13:47.694Z,34.75
2018-11-04T03:16:15.130Z,41.55
2018-11-04T03:18:43.224Z,44.35
2018-11-04T03:21:14.147Z,37.60
2018-11-04T03:23:42.727Z,47.58
2018-11-04T03:26:12.466Z,40.70
2018-11-04T03:28:39.789Z,38.23
2018-11-04T03:31:07.379Z,42.62
2018-11-04T03:33:37.190Z,43.05
2018-11-04T03:36:07.822Z,42.55
2018-11-04T03:38:35.417Z,44.77
2018-11-04T03:41:02.671Z,44.33
2018-11-04T03:43:31.954Z,41.83
2018-11-04T03:46:00.432Z,49.67
2018-11-04T03:48:27.804Z,44.48
2018-11-04T03:50:56.585Z,47.00
2018-11-04T03:53:24.064Z,44.63
2018-11-04T03:55:51.389Z,60.40
2018-11-04T03:58:19.861Z,49.73
2018-11-04T04:00:48.058Z,46.13
2018-11-04T04:03:16.033Z,43.33
2018-11-04T04:05:43.592Z,52.45
2018-11-04T04:08:10.996Z,55.00
2018-11-04T04:10:38.793Z,49.75
2018-11-04T04:13:06.337Z,48.17
2018-11-04T04:15:35.964Z,49.00
2018-11-04T04:18:03.213Z,46.23
2018-11-04T04:20:32.810Z,47.62
2018-11-04T04:23:00.200Z,53.08
2018-11-04T04:25:27.655Z,50.65
2018-11-04T04:27:56.021Z,49.95
2018-11-04T04:30:23.309Z,53.25
2018-11-04T04:32:51.606Z,47.23
2018-11-04T04:35:19.752Z,60.92
2018-11-04T04:37:48.279Z,55.45
2018-11-04T04:40:18.659Z,53.92
2018-11-04T04:44:11.510Z,53.73
2018-11-04T04:46:40.094Z,54.60
2018-11-04T04:49:08.736Z,53.10
2018-11-04T04:51:36.646Z,57.93
2018-11-04T04:54:04.382Z,49.98
2018-11-04T04:56:32.944Z,46.68
2018-11-04T04:59:00.420Z,55.88
2018-11-04T05:01:29.061Z,61.40
2018-11-04T05:03:56.713Z,53.65
2018-11-04T05:07:54.956Z,67.55
2018-11-04T05:10:23.710Z,49.93
2018-11-04T05:12:52.666Z,54.60
2018-11-04T05:15:20.263Z,52.08
2018-11-04T05:17:48.326Z,48.13
2018-11-04T05:20:16.647Z,55.12
2018-11-04T05:22:44.071Z,53.98
2018-11-04T05:25:12.179Z,53.73
2018-11-04T05:27:40.796Z,63.30
2018-11-04T05:30:11.831Z,45.08
2018-11-04T05:32:40.417Z,50.52
2018-11-04T05:35:09.905Z,52.83
2018-11-04T05:37:39.219Z,51.63
2018-11-04T05:40:06.975Z,51.35
2018-11-04T05:42:36.591Z,57.17
2018-11-04T05:45:04.322Z,52.67
2018-11-04T05:47:32.125Z,48.25
2018-11-04T05:50:00.764Z,61.42
2018-11-04T05:52:28.104Z,56.37
2018-11-04T05:54:56.637Z,56.15
2018-11-04T05:57:23.903Z,57.80
2018-11-04T05:59:52.758Z,54.03
2018-11-04T06:02:20.368Z,52.25
2018-11-04T06:04:47.946Z,55.20
2018-11-04T06:07:15.542Z,59.15
2018-11-04T06:09:42.949Z,58.55
2018-11-04T06:12:11.099Z,54.60
2018-11-04T06:14:38.534Z,57.88
2018-11-04T06:17:05.891Z,62.35
2018-11-04T06:19:34.905Z,60.15
2018-11-04T06:22:03.041Z,68.35
2018-11-04T06:24:32.151Z,55.38
2018-11-04T06:26:59.512Z,58.85
2018-11-04T06:29:26.813Z,63.25
2018-11-04T06:31:55.587Z,52.33
2018-11-04T06:34:24.125Z,55.43
2018-11-04T06:36:51.650Z,53.15
2018-11-04T06:39:19.832Z,58.10
2018-11-04T06:41:47.383Z,59.38
2018-11-04T06:44:15.735Z,64.42
2018-11-04T06:46:43.295Z,56.88
2018-11-04T06:49:10.653Z,61.35
2018-11-04T06:51:38.451Z,60.33
2018-11-04T06:54:09.058Z,59.38
2018-11-04T06:56:36.596Z,62.53
2018-11-04T06:59:04.025Z,60.58
2018-11-04T07:01:31.430Z,56.42
2018-11-04T07:04:10.074Z,64.17
2018-11-04T07:06:37.885Z,58.20
2018-11-04T07:09:06.959Z,62.15
2018-11-04T07:11:35.916Z,62.95
2018-11-04T07:14:03.392Z,61.02
2018-11-04T07:16:30.884Z,71.22
2018-11-04T07:19:00.466Z,70.92
2018-11-04T07:21:28.586Z,61.37
2018-11-04T07:23:57.653Z,64.72
2018-11-04T07:26:25.323Z,70.72
2018-11-04T07:28:54.296Z,63.17
2018-11-04T07:31:23.428Z,59.05
2018-11-04T07:33:51.418Z,65.62
2018-11-04T07:36:18.849Z,59.73
2018-11-04T07:38:47.238Z,63.55
2018-11-04T07:41:16.140Z,57.55
2018-11-04T07:43:47.213Z,59.90
2018-11-04T07:46:15.026Z,61.25
2018-11-04T07:48:45.351Z,68.12
2018-11-04T07:51:13.831Z,64.07
2018-11-04T07:53:42.810Z,60.48
2018-11-04T07:56:10.232Z,62.78
2018-11-04T07:58:39.436Z,59.35
2018-11-04T08:01:15.379Z,65.40
2018-11-04T08:03:45.088Z,79.42
2018-11-04T08:06:12.607Z,60.67
2018-11-04T08:08:40.031Z,59.80
2018-11-04T08:11:07.811Z,64.00
2018-11-04T08:13:37.452Z,64.27
2018-11-04T08:16:05.544Z,69.58
2018-11-04T08:18:34.121Z,71.72
2018-11-04T08:21:01.624Z,74.20
2018-11-04T08:23:30.475Z,67.25
2018-11-04T08:25:59.059Z,68.37
2018-11-04T08:28:27.490Z,66.97
2018-11-04T08:30:54.973Z,54.27
2018-11-04T08:33:22.342Z,75.90
2018-11-04T08:35:51.973Z,61.77
2018-11-04T08:38:19.275Z,61.35
2018-11-04T08:40:49.443Z,61.30
2018-11-04T08:43:17.971Z,77.15
2018-11-04T08:45:47.746Z,64.00
2018-11-04T08:48:15.948Z,64.53
2018-11-04T08:50:43.446Z,68.40
2018-11-04T08:53:12.632Z,59.67
2018-11-04T08:55:39.995Z,60.65
2018-11-04T08:58:09.614Z,55.65
2018-11-04T09:00:39.054Z,74.00
2018-11-04T09:03:06.397Z,73.95
2018-11-04T09:05:36.021Z,66.65
2018-11-04T09:08:06.438Z,68.30
2018-11-04T09:10:34.086Z,70.92
2018-11-04T09:13:01.462Z,67.70
2018-11-04T09:15:30.661Z,64.72
2018-11-04T09:17:58.758Z,58.50
2018-11-04T09:20:26.340Z,58.70
2018-11-04T09:22:53.805Z,63.30
2018-11-04T09:25:22.492Z,74.15
2018-11-04T09:27:50.026Z,72.72
2018-11-04T09:30:17.502Z,59.30
2018-11-04T09:32:45.034Z,70.55
2018-11-04T09:35:14.148Z,73.12
2018-11-04T09:37:41.652Z,59.88
2018-11-04T09:40:10.735Z,59.18
2018-11-04T09:42:38.380Z,62.05
2018-11-04T09:45:06.918Z,60.15
2018-11-04T09:47:36.504Z,73.05
2018-11-04T09:50:04.697Z,69.60
2018-11-04T09:52:34.864Z,60.95
2018-11-04T09:55:02.357Z,66.87
2018-11-04T09:57:30.499Z,62.27
2018-11-04T09:59:59.070Z,59.77
2018-11-04T10:02:29.909Z,62.80
2018-11-04T10:04:57.378Z,58.83
2018-11-04T10:07:25.368Z,59.70
2018-11-04T10:09:53.274Z,72.40
2018-11-04T10:12:20.843Z,60.80
2018-11-04T10:14:50.407Z,61.83
2018-11-04T10:17:17.939Z,57.08
2018-11-04T10:19:46.846Z,63.17
2018-11-04T10:22:40.640Z,64.27
2018-11-04T10:25:10.326Z,55.43
2018-11-04T10:27:38.350Z,55.00
2018-11-04T10:30:13.199Z,106.67
2018-11-04T10:32:43.512Z,53.70
2018-11-04T10:35:12.380Z,55.38
2018-11-04T10:37:44.587Z,50.17
2018-11-04T10:40:14.179Z,52.95
2018-11-04T10:42:41.499Z,55.52
2018-11-04T10:45:14.612Z,53.95
2018-11-04T10:47:42.060Z,60.45
2018-11-04T10:50:10.540Z,58.55
2018-11-04T10:52:41.797Z,58.83
2018-11-04T10:55:11.289Z,58.23
2018-11-04T10:57:39.612Z,51.10
2018-11-04T11:00:14.187Z,57.67
2018-11-04T11:02:41.641Z,48.30
2018-11-04T11:05:09.130Z,49.73
2018-11-04T11:07:37.068Z,47.13
2018-11-04T11:10:07.839Z,51.05
2018-11-04T11:12:36.705Z,45.90
2018-11-04T11:15:05.323Z,46.83
2018-11-04T11:17:34.051Z,46.70
2018-11-04T11:20:04.576Z,44.40
2018-11-04T11:22:33.998Z,54.48
2018-11-04T11:25:01.451Z,48.08
2018-11-04T11:27:30.004Z,48.40
2018-11-04T11:29:58.747Z,43.58
2018-11-04T11:32:26.504Z,47.83
2018-11-04T11:34:53.883Z,43.78
2018-11-04T11:37:23.107Z,42.45
2018-11-04T11:39:52.084Z,45.75
2018-11-04T11:42:20.373Z,46.20
2018-11-04T11:44:49.673Z,47.27
2018-11-04T11:47:17.234Z,37.70
2018-11-04T11:49:45.329Z,41.45
2018-11-04T11:52:12.985Z,41.85
2018-11-04T11:54:40.300Z,40.48
2018-11-04T11:57:07.841Z,42.30
2018-11-04T11:59:37.640Z,42.20
2018-11-04T12:02:05.070Z,49.53
2018-11-04T12:04:32.778Z,42.00
2018-11-04T12:07:04.908Z,43.08
2018-11-04T12:09:37.279Z,40.55
2018-11-04T12:12:06.600Z,38.27
2018-11-04T12:14:34.762Z,39.78
2018-11-04T12:17:04.608Z,42.35
2018-11-04T12:19:32.955Z,41.00
2018-11-04T12:22:01.767Z,37.10
2018-11-04T12:24:30.937Z,39.67
2018-11-04T12:27:01.871Z,32.85
2018-11-04T12:29:30.634Z,36.15
2018-11-04T12:32:00.341Z,36.75
2018-11-04T12:34:29.895Z,33.85
2018-11-04T12:36:58.214Z,33.45
2018-11-04T12:40:50.123Z,28.20
2018-11-04T12:43:19.509Z,33.60
2018-11-04T12:45:49.795Z,34.85
2018-11-04T12:48:19.291Z,33.50
2018-11-04T12:50:48.090Z,36.30
2018-11-04T12:53:15.582Z,41.70
2018-11-04T12:55:43.136Z,29.65
2018-11-04T12:58:13.163Z,33.35
2018-11-04T13:00:41.600Z,32.40
2018-11-04T13:03:09.274Z,31.03
2018-11-04T13:05:36.913Z,92.23
2018-11-04T13:08:04.810Z,34.07
2018-11-04T13:10:32.270Z,23.80
2018-11-04T13:12:59.946Z,27.80
2018-11-04T13:15:28.117Z,30.43
2018-11-04T13:17:55.629Z,32.60
2018-11-04T13:20:23.397Z,32.10
2018-11-04T13:22:50.849Z,28.27
2018-11-04T13:25:18.239Z,30.30
2018-11-04T13:27:45.772Z,25.00
2018-11-04T13:30:14.780Z,27.43
2018-11-04T13:32:42.339Z,28.80
2018-11-04T13:35:11.991Z,29.63
2018-11-04T13:37:39.732Z,32.20
2018-11-04T13:40:08.506Z,31.03
2018-11-04T13:42:36.052Z,26.73
2018-11-04T13:45:03.556Z,30.43
2018-11-04T13:47:31.580Z,33.30
2018-11-04T13:50:00.001Z,27.35
2018-11-04T13:52:27.544Z,23.20
2018-11-04T13:54:55.817Z,23.83
2018-11-04T13:57:25.424Z,25.40
2018-11-04T13:59:52.882Z,26.23
2018-11-04T14:02:20.241Z,27.60
2018-11-04T14:04:48.456Z,33.13
2018-11-04T14:07:16.723Z,30.30
2018-11-04T14:09:46.480Z,28.67
2018-11-04T14:12:17.814Z,32.80
2018-11-04T14:14:45.251Z,28.23
2018-11-04T14:17:15.500Z,32.48
2018-11-04T14:19:45.936Z,38.23
2018-11-04T14:22:13.444Z,35.50
2018-11-04T14:24:42.004Z,40.33
2018-11-04T14:27:09.667Z,38.75
2018-11-04T14:29:37.740Z,42.43
2018-11-04T14:32:05.473Z,33.73
2018-11-04T14:34:35.049Z,34.95
2018-11-04T14:37:02.600Z,37.88
2018-11-04T14:39:30.673Z,42.95
2018-11-04T14:42:01.920Z,35.35
2018-11-04T14:44:32.216Z,41.92
2018-11-04T14:46:59.740Z,44.90
2018-11-04T14:49:31.085Z,37.50
2018-11-04T14:51:58.787Z,42.08
2018-11-04T14:54:27.151Z,39.15
2018-11-04T14:56:55.725Z,45.52
2018-11-04T14:59:23.385Z,37.15
2018-11-04T15:01:51.279Z,39.40
2018-11-04T15:04:20.138Z,37.17
2018-11-04T15:06:47.594Z,32.95
2018-11-04T15:09:15.117Z,34.95
2018-11-04T15:11:45.129Z,41.23
2018-11-04T15:14:13.778Z,36.77
2018-11-04T15:16:42.139Z,37.63
2018-11-04T15:19:10.086Z,34.50
2018-11-04T15:21:42.660Z,31.25
2018-11-04T15:24:17.234Z,38.30
2018-11-04T15:26:46.368Z,39.38
2018-11-04T15:29:16.970Z,32.78
2018-11-04T15:31:47.801Z,39.42
2018-11-04T15:34:15.367Z,34.50
2018-11-04T15:36:42.926Z,33.98
2018-11-04T15:39:13.787Z,38.38
2018-11-04T15:41:41.504Z,35.90
2018-11-04T15:44:14.107Z,37.35
2018-11-04T15:46:41.947Z,33.28
2018-11-04T15:49:11.342Z,36.60
2018-11-04T15:51:39.544Z,33.92
2018-11-04T15:54:07.787Z,31.80
2018-11-04T15:56:35.502Z,31.50
2018-11-04T15:59:03.134Z,38.38
2018-11-04T16:01:30.611Z,35.45
2018-11-04T16:03:59.337Z,38.35
2018-11-04T16:06:26.889Z,33.33
2018-11-04T16:08:54.352Z,29.18
2018-11-04T16:11:23.475Z,35.52
2018-11-04T16:13:51.416Z,34.55
2018-11-04T16:16:19.304Z,42.65
2018-11-04T16:18:47.375Z,38.83
2018-11-04T16:21:16.330Z,41.45
2018-11-04T16:23:43.928Z,31.62
2018-11-04T16:26:11.372Z,30.35
2018-11-04T16:28:42.774Z,32.48
2018-11-04T16:31:10.832Z,36.60
2018-11-04T16:33:41.462Z,34.03
2018-11-04T16:36:09.243Z,32.13
2018-11-04T16:38:36.950Z,32.95
2018-11-04T16:41:07.334Z,39.65
2018-11-04T16:43:34.886Z,31.82
2018-11-04T16:46:03.693Z,32.20
2018-11-04T16:48:35.864Z,37.38
2018-11-04T16:51:03.896Z,29.45
2018-11-04T16:53:31.927Z,25.60
2018-11-04T16:55:59.584Z,29.80
2018-11-04T16:58:27.724Z,30.43
2018-11-04T17:00:55.319Z,28.27
2018-11-04T17:03:23.742Z,29.40
2018-11-04T17:05:53.990Z,27.30
2018-11-04T17:08:21.431Z,27.95
2018-11-04T17:10:51.076Z,29.57
2018-11-04T17:13:19.315Z,35.28
2018-11-04T17:15:46.784Z,26.25
2018-11-04T17:18:14.393Z,34.55
2018-11-04T17:20:42.583Z,31.65
2018-11-04T17:23:12.949Z,32.67
2018-11-04T17:25:40.415Z,39.38
2018-11-04T17:28:09.104Z,33.90
2018-11-04T17:30:36.579Z,33.83
2018-11-04T17:33:05.097Z,35.85
2018-11-04T17:35:33.362Z,32.33
2018-11-04T17:38:00.925Z,36.53
2018-11-04T17:40:28.657Z,31.75
2018-11-04T17:42:55.989Z,31.37
2018-11-04T17:45:23.857Z,39.92
2018-11-04T17:47:52.702Z,35.05
2018-11-04T17:50:22.537Z,32.75
2018-11-04T17:52:49.958Z,31.23
2018-11-04T17:55:19.480Z,34.27
2018-11-04T17:57:49.407Z,33.92
2018-11-04T18:00:23.948Z,38.60
2018-11-04T18:03:04.925Z,39.08
2018-11-04T18:05:34.855Z,34.50
2018-11-04T18:08:02.314Z,38.58
2018-11-04T18:10:30.045Z,33.05
2018-11-04T18:12:59.758Z,34.33
2018-11-04T18:15:27.968Z,35.08
2018-11-04T18:17:56.407Z,40.10
2018-11-04T18:20:25.541Z,35.70
2018-11-04T18:22:54.469Z,42.98
2018-11-04T18:25:22.955Z,41.35
2018-11-04T18:27:50.348Z,31.70
2018-11-04T18:30:21.428Z,40.92
2018-11-04T18:32:49.936Z,44.23
2018-11-04T18:35:17.514Z,37.78
2018-11-04T18:37:45.086Z,39.78
2018-11-04T18:40:14.427Z,40.33
2018-11-04T18:42:42.178Z,36.33
2018-11-04T18:45:14.194Z,38.67
2018-11-04T18:47:41.573Z,47.15
2018-11-04T18:50:13.046Z,45.15
2018-11-04T18:52:41.494Z,39.92
2018-11-04T18:55:10.050Z,47.67
2018-11-04T18:57:37.680Z,41.43
2018-11-04T19:00:10.888Z,53.95
2018-11-04T19:02:46.376Z,39.85
2018-11-04T19:05:35.317Z,45.83
2018-11-04T19:08:03.877Z,46.90
2018-11-04T19:10:38.849Z,41.85
2018-11-04T19:13:13.037Z,41.50
2018-11-04T19:16:08.536Z,49.10
2018-11-04T19:18:36.641Z,41.80
2018-11-04T19:21:09.172Z,38.33
2018-11-04T19:23:36.672Z,46.42
2018-11-04T19:26:07.967Z,39.93
2018-11-04T19:28:35.531Z,48.08
2018-11-04T19:31:02.780Z,43.90
2018-11-04T19:33:30.259Z,46.13
2018-11-04T19:35:58.340Z,36.83
2018-11-04T19:38:26.733Z,40.30
2018-11-04T19:40:54.947Z,43.73
2018-11-04T19:43:22.900Z,42.15
2018-11-04T19:45:59.226Z,34.38
2018-11-04T19:48:27.822Z,33.00
2018-11-04T19:51:00.426Z,43.00
2018-11-04T19:53:53.472Z,33.70
2018-11-04T19:56:24.652Z,39.03
2018-11-04T19:58:52.349Z,41.37
2018-11-04T20:01:21.051Z,40.78
2018-11-04T20:03:51.334Z,38.00
2018-11-04T20:06:33.588Z,37.53
2018-11-04T20:09:09.280Z,33.08
2018-11-04T20:11:36.941Z,37.08
2018-11-04T20:14:12.953Z,37.45
2018-11-04T20:16:41.843Z,35.30
2018-11-04T20:19:15.625Z,32.63
2018-11-04T20:21:44.916Z,37.40
2018-11-04T20:24:23.051Z,40.58
2018-11-04T20:26:51.482Z,37.78
2018-11-04T20:29:19.798Z,32.10
2018-11-04T20:31:53.439Z,43.13
2018-11-04T20:34:30.097Z,43.58
2018-11-04T20:37:16.242Z,39.42
2018-11-04T20:39:50.064Z,33.38
2018-11-04T20:42:20.500Z,29.00
2018-11-04T20:45:04.957Z,36.55
2018-11-04T20:47:41.697Z,35.05
2018-11-04T20:50:19.041Z,31.40
2018-11-04T20:52:47.607Z,33.53
2018-11-04T20:55:31.802Z,37.33
2018-11-04T20:57:59.345Z,41.10
2018-11-04T21:00:35.917Z,38.23
2018-11-04T21:03:04.009Z,31.40
2018-11-04T21:05:31.339Z,35.43
2018-11-04T21:08:03.513Z,36.83
2018-11-04T21:10:36.277Z,39.67
2018-11-04T21:13:03.642Z,34.70
2018-11-04T21:15:35.963Z,35.60
2018-11-04T21:18:06.951Z,39.98
2018-11-04T21:20:44.796Z,34.23
2018-11-04T21:23:13.057Z,28.17
2018-11-04T21:25:43.222Z,34.00
2018-11-04T21:28:12.770Z,32.00
2018-11-04T21:30:40.882Z,31.23
2018-11-04T21:33:09.962Z,36.57
2018-11-04T21:35:38.293Z,37.88
2018-11-04T21:38:05.938Z,37.03
2018-11-04T21:40:39.352Z,32.88
2018-11-04T21:43:08.045Z,29.10
2018-11-04T21:45:37.710Z,33.38
2018-11-04T21:48:09.695Z,31.97
2018-11-04T21:50:38.552Z,29.95
2018-11-04T21:53:06.077Z,30.27
2018-11-04T21:55:33.668Z,29.65
2018-11-04T21:58:00.976Z,151.07
2018-11-04T22:00:31.242Z,140.73
2018-11-04T22:02:59.159Z,26.15
2018-11-04T22:05:26.666Z,33.73
2018-11-04T22:07:55.047Z,25.45
2018-11-04T22:10:22.582Z,32.58
2018-11-04T22:12:52.258Z,29.80
2018-11-04T22:15:20.126Z,32.42
2018-11-04T22:17:48.723Z,29.90
2018-11-04T22:20:17.162Z,34.40
2018-11-04T22:22:46.780Z,28.92
2018-11-04T22:25:14.799Z,22.32
2018-11-04T22:27:45.033Z,26.85
2018-11-04T22:30:12.958Z,31.25
2018-11-04T22:32:41.097Z,34.55
2018-11-04T22:35:10.251Z,26.40
2018-11-04T22:37:38.374Z,29.15
2018-11-04T22:40:08.568Z,31.00
2018-11-04T22:42:37.207Z,29.18
2018-11-04T22:45:13.502Z,34.83
2018-11-04T22:47:42.538Z,26.40
2018-11-04T22:50:15.097Z,26.05
2018-11-04T22:52:42.914Z,28.95
2018-11-04T22:55:11.724Z,29.48
2018-11-04T22:58:01.172Z,30.48
2018-11-04T23:00:34.750Z,30.82
2018-11-04T23:03:02.365Z,31.35
2018-11-04T23:05:30.537Z,28.95
2018-11-04T23:07:57.828Z,36.17
2018-11-04T23:10:25.949Z,32.88
2018-11-04T23:12:53.943Z,30.43
2018-11-04T23:15:21.276Z,31.87
2018-11-04T23:17:48.638Z,26.55
2018-11-04T23:20:16.038Z,29.00
2018-11-04T23:22:44.204Z,32.28
2018-11-04T23:25:13.128Z,26.75
2018-11-04T23:27:41.496Z,28.27
2018-11-04T23:30:10.905Z,30.48
2018-11-04T23:32:39.143Z,27.40
2018-11-04T23:35:09.613Z,31.77
2018-11-04T23:37:37.147Z,30.15
2018-11-04T23:40:04.996Z,27.52
2018-11-04T23:42:33.297Z,26.70
2018-11-04T23:45:00.691Z,28.42
2018-11-04T23:47:28.081Z,28.73
2018-11-04T23:49:55.552Z,43.68
2018-11-04T23:52:24.135Z,33.40
2018-11-04T23:54:51.631Z,33.13
2018-11-04T23:57:21.684Z,40.23
2018-11-04T23:59:51.796Z,38.53
